createdAt,value
2018-08-06T00:00:49.363Z,72.35
2018-08-06T00:03:22.865Z,71.63
2018-08-06T00:05:53.474Z,72.02
2018-08-06T00:08:24.467Z,71.30
2018-08-06T00:10:54.869Z,71.41
2018-08-06T00:13:26.431Z,72.20
2018-08-06T00:15:56.899Z,72.54
2018-08-06T00:18:27.854Z,72.62
2018-08-06T00:20:57.817Z,71.43
2018-08-06T00:23:27.738Z,72.06
2018-08-06T00:25:58.168Z,72.24
2018-08-06T00:28:28.114Z,71.54
2018-08-06T00:30:58.170Z,72.16
2018-08-06T00:33:28.182Z,71.72
2018-08-06T00:35:58.890Z,72.89
2018-08-06T00:38:28.882Z,72.41
2018-08-06T00:40:58.935Z,72.57
2018-08-06T00:43:28.986Z,72.96
2018-08-06T00:45:59.014Z,73.42
2018-08-06T00:48:29.433Z,72.77
2018-08-06T00:50:59.414Z,73.03
2018-08-06T00:53:29.358Z,72.75
2018-08-06T00:55:59.262Z,73.28
2018-08-06T00:58:29.738Z,72.87
2018-08-06T01:00:59.731Z,73.75
2018-08-06T01:03:29.694Z,72.60
2018-08-06T01:05:59.843Z,73.13
2018-08-06T01:08:29.778Z,73.72
2018-08-06T01:10:59.760Z,72.75
2018-08-06T01:13:30.393Z,72.95
2018-08-06T01:16:00.306Z,72.78
2018-08-06T01:18:30.289Z,72.92
2018-08-06T01:21:00.541Z,73.62
2018-08-06T01:23:31.471Z,73.02
2018-08-06T01:26:01.493Z,73.57
2018-08-06T01:28:31.769Z,74.46
2018-08-06T01:31:01.772Z,73.88
2018-08-06T01:33:31.770Z,73.92
2018-08-06T01:36:02.190Z,73.38
2018-08-06T01:38:32.188Z,74.10
2018-08-06T01:41:02.280Z,73.31
2018-08-06T01:43:32.980Z,73.82
2018-08-06T01:46:02.935Z,73.66
2018-08-06T01:48:32.900Z,74.52
2018-08-06T01:51:03.278Z,74.56
2018-08-06T01:53:33.255Z,74.00
2018-08-06T01:56:03.380Z,74.71
2018-08-06T01:58:33.631Z,74.81
2018-08-06T02:01:03.569Z,74.81
2018-08-06T02:03:33.510Z,74.37
2018-08-06T02:06:03.506Z,74.11
2018-08-06T02:08:33.433Z,74.98
2018-08-06T02:11:03.356Z,74.28
2018-08-06T02:13:35.658Z,75.00
2018-08-06T02:16:05.658Z,74.39
2018-08-06T02:18:35.631Z,74.42
2018-08-06T02:21:06.140Z,75.39
2018-08-06T02:23:36.047Z,75.88
2018-08-06T02:26:07.596Z,75.85
2018-08-06T02:28:37.515Z,75.77
2018-08-06T02:31:07.695Z,75.12
2018-08-06T02:33:37.693Z,75.78
2018-08-06T02:36:08.097Z,75.34
2018-08-06T02:38:38.014Z,75.84
2018-08-06T02:41:07.919Z,76.11
2018-08-06T02:43:38.489Z,75.51
2018-08-06T02:46:08.510Z,75.92
2018-08-06T02:48:38.486Z,75.29
2018-08-06T02:51:08.519Z,74.97
2018-08-06T02:53:38.530Z,75.29
2018-08-06T02:56:08.790Z,75.78
2018-08-06T02:58:39.090Z,75.38
2018-08-06T03:01:09.001Z,74.53
2018-08-06T03:03:38.922Z,74.47
2018-08-06T03:06:08.850Z,75.36
2018-08-06T03:08:38.804Z,74.31
2018-08-06T03:11:08.717Z,74.73
2018-08-06T03:13:39.021Z,74.29
2018-08-06T03:16:09.034Z,74.87
2018-08-06T03:18:39.055Z,75.96
2018-08-06T03:21:09.083Z,75.64
2018-08-06T03:23:39.150Z,76.29
2018-08-06T03:26:09.143Z,76.01
2018-08-06T03:28:39.370Z,76.06
2018-08-06T03:31:09.931Z,76.04
2018-08-06T03:33:39.907Z,76.88
2018-08-06T03:36:10.570Z,76.57
2018-08-06T03:38:40.557Z,76.25
2018-08-06T03:41:10.534Z,76.13
2018-08-06T03:43:40.898Z,76.71
2018-08-06T03:46:14.850Z,76.26
2018-08-06T03:48:44.916Z,76.47
2018-08-06T03:51:14.918Z,76.79
2018-08-06T03:53:45.044Z,76.18
2018-08-06T03:56:18.942Z,76.84
2018-08-06T03:58:51.410Z,76.32
2018-08-06T04:01:21.315Z,77.06
2018-08-06T04:03:51.254Z,76.29
2018-08-06T04:06:21.590Z,76.29
2018-08-06T04:08:51.525Z,75.52
2018-08-06T04:11:22.443Z,75.85
2018-08-06T04:13:52.432Z,75.58
2018-08-06T04:16:22.639Z,75.91
2018-08-06T04:18:52.866Z,76.12
2018-08-06T04:21:22.824Z,76.28
2018-08-06T04:23:53.108Z,76.00
2018-08-06T04:26:23.057Z,76.00
2018-08-06T04:28:53.009Z,77.10
2018-08-06T04:31:23.058Z,76.31
2018-08-06T04:33:54.080Z,76.50
2018-08-06T04:36:24.042Z,76.52
2018-08-06T04:38:53.973Z,76.99
2018-08-06T04:41:24.287Z,76.82
2018-08-06T04:43:54.213Z,77.32
2018-08-06T04:46:24.147Z,77.25
2018-08-06T04:48:54.406Z,76.67
2018-08-06T04:51:24.563Z,76.77
2018-08-06T04:53:55.537Z,77.13
2018-08-06T04:56:25.838Z,77.67
2018-08-06T04:59:00.168Z,77.84
2018-08-06T05:01:32.430Z,78.03
2018-08-06T05:04:06.786Z,77.30
2018-08-06T05:06:39.172Z,77.71
2018-08-06T05:09:11.386Z,77.51
2018-08-06T05:11:42.514Z,78.11
2018-08-06T05:14:12.443Z,77.49
2018-08-06T05:16:42.382Z,77.19
2018-08-06T05:19:12.676Z,76.36
2018-08-06T05:21:42.623Z,76.10
2018-08-06T05:24:12.606Z,75.59
2018-08-06T05:26:42.553Z,75.62
2018-08-06T05:29:12.528Z,75.88
2018-08-06T05:31:42.847Z,75.57
2018-08-06T05:34:12.946Z,75.37
2018-08-06T05:36:43.376Z,75.03
2018-08-06T05:39:13.445Z,74.50
2018-08-06T05:41:44.147Z,74.49
2018-08-06T05:44:15.146Z,74.03
2018-08-06T05:47:59.485Z,74.01
2018-08-06T05:50:29.963Z,73.31
2018-08-06T05:52:59.997Z,72.88
2018-08-06T05:55:33.548Z,72.90
2018-08-06T05:58:04.299Z,71.66
2018-08-06T06:00:34.210Z,69.82
2018-08-06T06:03:05.110Z,70.68
2018-08-06T06:05:36.123Z,67.12
2018-08-06T06:08:06.489Z,67.23
2018-08-06T06:10:36.496Z,66.97
2018-08-06T06:13:06.626Z,68.26
2018-08-06T06:15:38.966Z,65.59
2018-08-06T06:18:08.902Z,65.40
2018-08-06T06:20:38.819Z,62.73
2018-08-06T06:23:09.047Z,62.29
2018-08-06T06:25:41.315Z,63.26
2018-08-06T06:28:17.362Z,61.75
2018-08-06T06:30:52.049Z,60.72
2018-08-06T06:33:22.031Z,60.70
2018-08-06T06:36:06.374Z,61.13
2018-08-06T06:38:37.137Z,59.06
2018-08-06T06:41:08.706Z,59.50
2018-08-06T06:43:40.821Z,58.36
2018-08-06T06:46:10.926Z,56.07
2018-08-06T06:48:40.925Z,53.68
2018-08-06T06:51:10.942Z,55.66
2018-08-06T06:53:40.834Z,56.28
2018-08-06T06:56:10.770Z,52.58
2018-08-06T06:58:40.761Z,53.93
2018-08-06T07:01:12.504Z,52.41
2018-08-06T07:04:01.137Z,51.37
2018-08-06T07:06:32.178Z,52.62
2018-08-06T07:09:02.143Z,50.63
2018-08-06T07:11:32.043Z,48.99
2018-08-06T07:14:01.978Z,46.45
2018-08-06T07:16:32.589Z,46.72
2018-08-06T07:19:06.769Z,48.36
2018-08-06T07:21:37.750Z,47.73
2018-08-06T07:24:09.428Z,48.00
2018-08-06T07:26:40.675Z,46.76
2018-08-06T07:29:11.410Z,47.51
2018-08-06T07:31:43.473Z,46.62
2018-08-06T07:34:14.034Z,48.57
2018-08-06T07:36:44.033Z,47.82
2018-08-06T07:39:14.927Z,47.51
2018-08-06T07:41:45.749Z,46.13
2018-08-06T07:44:15.643Z,46.82
2018-08-06T07:46:47.096Z,47.52
2018-08-06T07:49:18.224Z,48.63
2018-08-06T07:51:49.234Z,47.13
2018-08-06T07:54:19.839Z,44.76
2018-08-06T07:56:49.741Z,44.39
2018-08-06T07:59:19.745Z,44.21
2018-08-06T08:01:50.250Z,46.43
2018-08-06T08:04:20.670Z,45.10
2018-08-06T08:06:51.827Z,45.88
2018-08-06T08:09:22.098Z,44.81
2018-08-06T08:11:52.900Z,43.43
2018-08-06T08:14:22.886Z,45.10
2018-08-06T08:16:52.902Z,44.18
2018-08-06T08:19:23.834Z,44.11
2018-08-06T08:21:53.906Z,43.05
2018-08-06T08:24:23.826Z,42.39
2018-08-06T08:26:54.866Z,41.90
2018-08-06T08:29:24.803Z,42.64
2018-08-06T08:31:54.808Z,42.56
2018-08-06T08:34:26.511Z,41.35
2018-08-06T08:36:57.383Z,42.01
2018-08-06T08:39:28.939Z,42.48
2018-08-06T08:42:02.347Z,41.72
2018-08-06T08:44:32.725Z,41.71
2018-08-06T08:47:02.700Z,41.88
2018-08-06T08:49:32.658Z,43.38
2018-08-06T08:52:03.592Z,43.59
2018-08-06T08:54:33.542Z,43.66
2018-08-06T08:57:04.402Z,42.49
2018-08-06T08:59:35.854Z,41.85
2018-08-06T09:02:06.659Z,42.16
2018-08-06T09:04:36.802Z,42.68
2018-08-06T09:07:07.577Z,43.21
2018-08-06T09:09:38.762Z,40.21
2018-08-06T09:12:11.236Z,41.53
2018-08-06T09:14:42.827Z,42.48
2018-08-06T09:17:15.859Z,42.10
2018-08-06T09:19:46.972Z,41.05
2018-08-06T09:22:17.012Z,41.45
2018-08-06T09:24:47.019Z,40.90
2018-08-06T09:27:17.858Z,42.17
2018-08-06T09:29:51.296Z,40.93
2018-08-06T09:32:21.237Z,41.55
2018-08-06T09:34:51.262Z,39.80
2018-08-06T09:37:22.153Z,41.20
2018-08-06T09:39:53.782Z,41.01
2018-08-06T09:42:26.569Z,41.85
2018-08-06T09:44:56.574Z,41.52
2018-08-06T09:47:28.407Z,40.23
2018-08-06T09:50:00.816Z,41.05
2018-08-06T09:52:32.431Z,40.17
2018-08-06T09:55:11.737Z,40.92
2018-08-06T09:57:43.202Z,40.16
2018-08-06T10:00:21.640Z,40.40
2018-08-06T10:02:52.550Z,39.07
2018-08-06T10:05:23.477Z,41.27
2018-08-06T10:07:56.359Z,40.48
2018-08-06T10:10:26.841Z,40.52
2018-08-06T10:12:56.802Z,40.37
2018-08-06T10:15:27.193Z,39.95
2018-08-06T10:18:04.439Z,40.53
2018-08-06T10:20:42.461Z,40.40
2018-08-06T10:23:26.243Z,39.27
2018-08-06T10:26:06.698Z,37.20
2018-08-06T10:28:43.634Z,38.39
2018-08-06T10:31:14.838Z,37.27
2018-08-06T10:33:46.796Z,39.99
2018-08-06T10:36:26.573Z,39.41
2018-08-06T10:39:04.109Z,38.48
2018-08-06T10:41:41.938Z,39.93
2018-08-06T10:44:14.897Z,39.82
2018-08-06T10:46:44.853Z,38.74
2018-08-06T10:49:18.627Z,36.52
2018-08-06T10:52:03.167Z,37.25
2018-08-06T10:57:40.433Z,36.42
2018-08-06T11:00:19.954Z,36.56
2018-08-06T11:02:53.158Z,35.90
2018-08-06T11:05:25.058Z,36.39
2018-08-06T11:07:58.406Z,37.10
2018-08-06T11:10:31.051Z,35.92
2018-08-06T11:13:04.003Z,37.32
2018-08-06T11:15:37.159Z,36.58
2018-08-06T11:18:07.710Z,35.39
2018-08-06T11:20:38.479Z,36.73
2018-08-06T11:23:10.145Z,35.36
2018-08-06T11:25:40.142Z,34.55
2018-08-06T11:28:10.908Z,36.26
2018-08-06T11:30:43.637Z,34.96
2018-08-06T11:33:15.013Z,35.73
2018-08-06T11:35:46.303Z,33.27
2018-08-06T11:38:16.669Z,35.46
2018-08-06T11:40:49.991Z,36.40
2018-08-06T11:43:21.370Z,34.55
2018-08-06T11:45:52.387Z,34.62
2018-08-06T11:48:22.418Z,34.06
2018-08-06T11:51:01.399Z,34.22
2018-08-06T11:53:31.564Z,34.59
2018-08-06T11:56:02.446Z,33.19
2018-08-06T11:58:43.314Z,34.26
2018-08-06T12:01:17.193Z,34.49
2018-08-06T12:03:47.390Z,34.50
2018-08-06T12:06:17.985Z,33.14
2018-08-06T12:08:48.722Z,33.82
2018-08-06T12:11:42.102Z,34.25
2018-08-06T12:14:20.146Z,33.45
2018-08-06T12:16:50.878Z,34.67
2018-08-06T12:19:21.852Z,33.76
2018-08-06T12:21:53.690Z,34.12
2018-08-06T12:24:23.860Z,34.09
2018-08-06T12:26:54.624Z,32.80
2018-08-06T12:29:26.913Z,35.84
2018-08-06T12:31:58.859Z,33.69
2018-08-06T12:34:29.105Z,34.39
2018-08-06T12:37:01.067Z,33.38
2018-08-06T12:39:32.234Z,34.73
2018-08-06T12:42:07.266Z,34.01
2018-08-06T12:44:38.100Z,33.41
2018-08-06T12:47:10.654Z,33.17
2018-08-06T12:49:43.512Z,33.58
2018-08-06T12:52:13.718Z,33.31
2018-08-06T12:54:43.807Z,33.85
2018-08-06T12:57:13.800Z,33.33
2018-08-06T12:59:46.074Z,33.14
2018-08-06T13:02:17.754Z,34.20
2018-08-06T13:05:09.315Z,34.36
2018-08-06T13:07:45.309Z,33.21
2018-08-06T13:10:16.393Z,33.00
2018-08-06T13:12:48.188Z,34.00
2018-08-06T13:15:19.363Z,33.15
2018-08-06T13:17:51.142Z,32.79
2018-08-06T13:20:26.769Z,33.31
2018-08-06T13:22:57.288Z,32.46
2018-08-06T13:25:30.482Z,35.26
2018-08-06T13:28:01.825Z,33.03
2018-08-06T13:30:33.681Z,33.03
2018-08-06T13:33:04.375Z,32.84
2018-08-06T13:35:34.452Z,32.00
2018-08-06T13:38:08.618Z,31.92
2018-08-06T13:40:39.663Z,32.96
2018-08-06T13:43:11.289Z,32.73
2018-08-06T13:45:46.582Z,32.45
2018-08-06T13:48:18.524Z,32.66
2018-08-06T13:50:49.303Z,33.29
2018-08-06T13:53:19.818Z,32.67
2018-08-06T13:55:49.845Z,31.32
2018-08-06T13:58:21.700Z,30.60
2018-08-06T14:00:52.126Z,29.90
2018-08-06T14:03:22.156Z,30.11
2018-08-06T14:05:52.887Z,29.91
2018-08-06T14:08:24.223Z,30.01
2018-08-06T14:10:54.166Z,30.41
2018-08-06T14:13:25.809Z,29.36
2018-08-06T14:15:56.408Z,29.45
2018-08-06T14:18:28.622Z,29.34
2018-08-06T14:20:59.311Z,30.08
2018-08-06T14:23:30.628Z,29.58
2018-08-06T14:26:01.513Z,31.29
2018-08-06T14:28:31.503Z,29.06
2018-08-06T14:31:02.173Z,29.35
2018-08-06T14:33:35.878Z,29.63
2018-08-06T14:36:08.766Z,29.06
2018-08-06T14:38:40.001Z,28.61
2018-08-06T14:41:11.282Z,28.22
2018-08-06T14:43:43.372Z,28.00
2018-08-06T14:46:13.893Z,28.08
2018-08-06T14:48:45.954Z,27.39
2018-08-06T14:51:15.954Z,26.86
2018-08-06T14:53:47.342Z,27.85
2018-08-06T14:56:18.334Z,26.50
2018-08-06T14:58:48.257Z,27.28
2018-08-06T15:01:18.625Z,25.64
2018-08-06T15:03:48.562Z,25.75
2018-08-06T15:06:18.621Z,25.83
2018-08-06T15:08:49.610Z,25.89
2018-08-06T15:11:24.424Z,25.22
2018-08-06T15:16:38.311Z,25.97
2018-08-06T15:19:08.902Z,26.83
2018-08-06T15:21:39.910Z,25.66
2018-08-06T15:24:11.291Z,26.51
2018-08-06T15:26:41.378Z,29.10
2018-08-06T15:29:12.701Z,28.31
2018-08-06T15:31:46.213Z,28.20
2018-08-06T15:34:17.057Z,26.39
2018-08-06T15:36:50.217Z,27.29
2018-08-06T15:39:21.029Z,26.44
2018-08-06T15:41:51.920Z,27.35
2018-08-06T15:44:22.778Z,27.10
2018-08-06T15:46:53.653Z,27.40
2018-08-06T15:49:23.765Z,26.53
2018-08-06T15:52:02.476Z,27.03
2018-08-06T15:54:33.553Z,25.57
2018-08-06T15:59:42.534Z,26.36
2018-08-06T16:02:15.734Z,25.61
2018-08-06T16:04:50.316Z,26.17
2018-08-06T16:07:22.531Z,25.48
2018-08-06T16:09:54.978Z,26.99
2018-08-06T16:12:25.378Z,26.27
2018-08-06T16:14:56.013Z,25.92
2018-08-06T16:17:28.281Z,27.45
2018-08-06T16:20:03.141Z,26.97
2018-08-06T16:22:39.089Z,26.73
2018-08-06T16:25:12.134Z,26.11
2018-08-06T16:27:42.471Z,26.71
2018-08-06T16:30:30.354Z,26.09
2018-08-06T16:33:05.320Z,26.67
2018-08-06T16:35:39.440Z,26.42
2018-08-06T16:38:10.491Z,26.39
2018-08-06T16:40:42.050Z,26.24
2018-08-06T16:43:15.236Z,27.17
2018-08-06T16:45:46.810Z,26.77
2018-08-06T16:48:17.774Z,27.19
2018-08-06T16:50:50.084Z,27.20
2018-08-06T16:53:20.575Z,28.35
2018-08-06T16:55:50.879Z,28.15
2018-08-06T16:58:20.877Z,27.90
2018-08-06T17:00:51.446Z,27.86
2018-08-06T17:03:23.863Z,29.03
2018-08-06T17:05:57.570Z,28.56
2018-08-06T17:08:30.720Z,29.29
2018-08-06T17:11:06.387Z,30.25
2018-08-06T17:13:40.346Z,29.54
2018-08-06T17:16:13.861Z,31.18
2018-08-06T17:18:46.408Z,30.49
2018-08-06T17:21:20.394Z,29.81
2018-08-06T17:23:55.284Z,30.42
2018-08-06T17:26:26.302Z,29.70
2018-08-06T17:28:58.767Z,30.74
2018-08-06T17:31:46.763Z,30.80
2018-08-06T17:34:17.485Z,30.91
2018-08-06T17:36:49.942Z,31.03
2018-08-06T17:39:21.571Z,31.18
2018-08-06T17:41:53.166Z,30.91
2018-08-06T17:44:26.382Z,31.49
2018-08-06T17:46:58.737Z,30.98
2018-08-06T17:49:29.244Z,30.59
2018-08-06T17:52:02.180Z,31.55
2018-08-06T17:54:35.523Z,31.54
2018-08-06T17:57:06.721Z,32.51
2018-08-06T17:59:41.041Z,31.73
2018-08-06T18:02:15.286Z,31.92
2018-08-06T18:04:45.773Z,32.29
2018-08-06T18:07:18.104Z,32.10
2018-08-06T18:09:50.754Z,33.83
2018-08-06T18:12:21.402Z,34.15
2018-08-06T18:14:52.546Z,34.68
2018-08-06T18:17:25.208Z,34.41
2018-08-06T18:19:57.403Z,35.31
2018-08-06T18:22:31.877Z,34.67
2018-08-06T18:25:04.649Z,36.13
2018-08-06T18:27:35.319Z,36.31
2018-08-06T18:30:14.398Z,37.22
2018-08-06T18:32:44.972Z,36.19
2018-08-06T18:35:17.400Z,36.88
2018-08-06T18:37:47.437Z,37.19
2018-08-06T18:40:18.784Z,36.76
2018-08-06T18:42:48.717Z,36.96
2018-08-06T18:45:20.679Z,38.52
2018-08-06T18:47:52.684Z,38.50
2018-08-06T18:50:23.216Z,39.56
2018-08-06T18:52:53.270Z,40.05
2018-08-06T18:55:25.497Z,40.67
2018-08-06T18:57:57.058Z,41.10
2018-08-06T19:00:27.973Z,39.59
2018-08-06T19:03:00.535Z,40.12
2018-08-06T19:05:31.040Z,40.88
2018-08-06T19:08:03.521Z,40.73
2018-08-06T19:10:34.475Z,42.12
2018-08-06T19:13:09.476Z,41.68
2018-08-06T19:15:41.407Z,41.96
2018-08-06T19:18:17.175Z,42.74
2018-08-06T19:20:48.290Z,43.02
2018-08-06T19:23:19.830Z,43.36
2018-08-06T19:25:50.523Z,42.72
2018-08-06T19:28:20.458Z,44.15
2018-08-06T19:30:58.279Z,43.12
2018-08-06T19:33:30.294Z,43.04
2018-08-06T19:36:03.666Z,44.35
2018-08-06T19:38:34.326Z,44.53
2018-08-06T19:41:06.035Z,44.80
2018-08-06T19:43:39.228Z,45.25
2018-08-06T19:46:10.446Z,45.40
2018-08-06T19:48:42.261Z,45.64
2018-08-06T19:51:14.246Z,45.23
2018-08-06T19:53:45.997Z,45.79
2018-08-06T19:56:19.543Z,46.22
2018-08-06T19:58:50.587Z,45.83
2018-08-06T20:01:21.922Z,47.21
2018-08-06T20:03:53.224Z,47.35
2018-08-06T20:06:23.549Z,46.43
2018-08-06T20:08:54.396Z,47.04
2018-08-06T20:11:25.333Z,48.61
2018-08-06T20:13:58.229Z,47.54
2018-08-06T20:16:30.504Z,49.05
2018-08-06T20:19:04.396Z,47.98
2018-08-06T20:21:36.927Z,48.26
2018-08-06T20:24:13.375Z,47.26
2018-08-06T20:26:43.957Z,47.49
2018-08-06T20:29:17.805Z,48.44
2018-08-06T20:31:48.257Z,48.17
2018-08-06T20:34:18.190Z,48.84
2018-08-06T20:36:48.380Z,49.11
2018-08-06T20:39:20.340Z,49.43
2018-08-06T20:41:50.910Z,49.56
2018-08-06T20:44:21.592Z,49.15
2018-08-06T20:46:53.822Z,48.23
2018-08-06T20:49:24.914Z,47.58
2018-08-06T20:51:55.848Z,47.68
2018-08-06T20:54:28.627Z,47.62
2018-08-06T20:56:58.654Z,46.27
2018-08-06T20:59:29.829Z,46.24
2018-08-06T21:02:02.301Z,45.72
2018-08-06T21:04:33.978Z,44.36
2018-08-06T21:07:06.534Z,43.76
2018-08-06T21:09:37.958Z,43.24
2018-08-06T21:12:11.624Z,43.83
2018-08-06T21:14:44.054Z,44.14
2018-08-06T21:17:14.409Z,44.48
2018-08-06T21:19:45.776Z,43.95
2018-08-06T21:22:16.833Z,43.87
2018-08-06T21:24:46.760Z,44.49
2018-08-06T21:27:17.755Z,43.84
2018-08-06T21:29:49.891Z,44.32
2018-08-06T21:32:19.872Z,43.28
2018-08-06T21:34:51.391Z,43.33
2018-08-06T21:37:21.385Z,42.32
2018-08-06T21:39:54.273Z,42.61
2018-08-06T21:42:25.770Z,42.84
2018-08-06T21:44:55.789Z,42.04
2018-08-06T21:47:26.244Z,42.06
2018-08-06T21:49:56.374Z,41.58
2018-08-06T21:52:28.512Z,41.08
2018-08-06T21:54:59.065Z,41.55
2018-08-06T21:57:29.097Z,41.61
2018-08-06T22:00:00.962Z,41.40
2018-08-06T22:02:32.977Z,40.67
2018-08-06T22:05:06.797Z,40.94
2018-08-06T22:07:36.757Z,40.82
2018-08-06T22:10:08.726Z,40.32
2018-08-06T22:12:39.238Z,41.05
2018-08-06T22:15:11.590Z,41.41
2018-08-06T22:17:41.610Z,40.59
2018-08-06T22:20:12.352Z,41.29
2018-08-06T22:22:42.363Z,40.71
2018-08-06T22:25:13.147Z,41.17
2018-08-06T22:27:44.154Z,41.40
2018-08-06T22:30:14.715Z,40.09
2018-08-06T22:32:46.298Z,40.38
2018-08-06T22:35:17.315Z,41.52
2018-08-06T22:37:47.245Z,41.18
2018-08-06T22:40:17.342Z,39.96
2018-08-06T22:42:48.237Z,40.66
2018-08-06T22:45:18.209Z,40.16
2018-08-06T22:47:48.225Z,41.02
2018-08-06T22:50:18.596Z,40.13
2018-08-06T22:52:49.646Z,40.08
2018-08-06T22:55:19.625Z,39.57
2018-08-06T22:57:50.290Z,40.10
2018-08-06T23:00:21.775Z,38.92
2018-08-06T23:02:54.814Z,39.62
2018-08-06T23:05:24.962Z,38.99
2018-08-06T23:07:56.367Z,38.57
2018-08-06T23:10:26.344Z,39.26
2018-08-06T23:12:56.275Z,39.11
2018-08-06T23:15:27.930Z,39.37
2018-08-06T23:17:57.961Z,39.54
2018-08-06T23:20:27.900Z,39.53
2018-08-06T23:22:57.791Z,39.05
2018-08-06T23:25:29.229Z,39.00
2018-08-06T23:28:00.082Z,40.07
2018-08-06T23:30:30.051Z,39.37
2018-08-06T23:33:00.257Z,38.50
2018-08-06T23:35:31.855Z,38.22
2018-08-06T23:38:01.815Z,38.10
2018-08-06T23:40:31.773Z,37.97
2018-08-06T23:43:02.269Z,39.18
2018-08-06T23:45:32.222Z,37.72
2018-08-06T23:48:02.201Z,37.65
2018-08-06T23:50:33.653Z,38.91
2018-08-06T23:53:04.685Z,38.68
2018-08-06T23:55:36.177Z,37.90
2018-08-06T23:58:07.448Z,37.48
